Weather at Eidsberg Airstrip

Public forecast

Using degrees Celsius for public forecast. Weather courtesy of forecast.io.

Closest aviation weather report (METAR) to Eidsberg Airstrip

Closest report is Moss Airport, Rygge, 16.9 nm (31.2 km) WSW.

2024/05/21 07:50 (retrieved 27 minutes ago)

ENRY 210750Z 11006KT CAVOK 17/M02 Q1023 NOSIG

Closest aviation forecast (TAF) to Eidsberg Airstrip

Closest forecast is Moss Airport, Rygge, 16.9 nm (31.2 km) WSW.

2024/05/21 06:39 (retrieved 2 hours ago)

TAF TAF ENRY 210500Z 2106/2206 10005KT CAVOK